Terminal Aerodrome Forecast
Issued by NWS St Louis, MO

Home | Current Version | Previous Version | Text Only | Print | Product List | Glossary On
Versions: 1 2 3 4 5 6 7 8 9 10 11 12 13 14 15 16 17 18 19
000
FTUS43 KLSX 241700
TAFCOU
TAF
KCOU 241724Z 2418/2518 16010KT 6SM -SHRA VCTS BKN040CB
     FM242100 18012KT 5SM -TSRA OVC035CB
     FM250000 29014KT 6SM -SHRA OVC030
     FM250300 30016G26KT P6SM BKN030
     FM250600 27012KT P6SM FEW150=

USA.gov is the U.S. government's official web portal to all federal, state and local government web resources and services.